Time;durP1;ratioP1;P1;durP2;ratioP2;P2;SDS_P1;SDS_P2;PMS_P1;PMS_P2;Temp;Humidity;BMP_temperature;BMP_pressure;BME280_temperature;BME280_humidity;BME280_pressure;Samples;Min_cycle;Max_cycle;Signal;HPM_P1;HPM_P2
2022/05/05 00:01:41;;;;;;;7.78;6.53;;;;;;;11.09;70.80;102106.53;5043763;28;20033;-80
2022/05/05 00:04:07;;;;;;;6.10;5.57;;;;;;;11.09;70.81;102105.69;5078204;28;20032;-80
2022/05/05 00:06:32;;;;;;;9.40;5.75;;;;;;;11.10;70.78;102110.03;5075198;28;20033;-80
2022/05/05 00:08:58;;;;;;;5.68;5.18;;;;;;;11.10;70.45;102112.66;5048758;28;20047;-80
2022/05/05 00:16:53;;;;;;;7.30;5.32;;;;;;;11.06;70.64;102110.97;5078326;28;20395;-80
2022/05/05 00:19:19;;;;;;;8.77;5.97;;;;;;;11.06;70.71;102103.13;5059595;28;20036;-80
2022/05/05 00:21:45;;;;;;;9.30;5.75;;;;;;;11.04;70.70;102104.91;5077809;28;20213;-80
2022/05/05 00:24:11;;;;;;;5.65;4.95;;;;;;;11.03;70.59;102103.22;5058764;28;20103;-80
2022/05/05 00:26:37;;;;;;;6.65;5.50;;;;;;;11.02;70.85;102102.31;5048013;28;20043;-80
2022/05/05 00:29:02;;;;;;;6.20;5.50;;;;;;;11.02;70.87;102106.72;5065534;28;20123;-80
2022/05/05 00:31:28;;;;;;;7.22;6.07;;;;;;;11.01;70.78;102102.38;5067558;28;20045;-80
2022/05/05 00:33:53;;;;;;;8.60;6.45;;;;;;;10.99;70.62;102101.53;5077945;28;20232;-80
2022/05/05 00:36:19;;;;;;;7.07;5.82;;;;;;;10.97;71.36;102103.31;5042912;28;20059;-80
2022/05/05 00:38:44;;;;;;;6.80;5.65;;;;;;;10.96;70.88;102105.09;5042907;28;20067;-80
2022/05/05 00:41:10;;;;;;;9.15;5.97;;;;;;;10.94;70.85;102102.50;5057546;28;20032;-80
2022/05/05 00:43:35;;;;;;;8.07;5.72;;;;;;;10.92;70.97;102106.91;5059097;28;20111;-80
2022/05/05 00:46:02;;;;;;;7.53;5.75;;;;;;;10.90;70.90;102103.47;5059803;28;20340;-80
2022/05/05 00:48:28;;;;;;;9.55;5.55;;;;;;;10.90;71.04;102100.00;5058708;28;20103;-80
2022/05/05 00:50:55;;;;;;;8.40;5.32;;;;;;;10.88;71.07;102102.66;5059507;28;20182;-80
2022/05/05 00:53:21;;;;;;;5.70;4.95;;;;;;;10.89;71.17;102098.25;5054306;28;20035;-80
2022/05/05 00:55:46;;;;;;;7.45;5.30;;;;;;;10.88;70.99;102104.41;5076853;28;20044;-80
2022/05/05 00:58:14;;;;;;;7.70;5.35;;;;;;;10.88;71.24;102099.16;5074161;28;20047;-80
2022/05/05 01:04:02;;;;;;;6.85;5.38;;;;;;;10.84;71.40;102100.09;5042532;28;20474;-80
2022/05/05 01:06:29;;;;;;;6.82;5.22;;;;;;;10.83;71.17;102090.53;5035232;28;20108;-80
2022/05/05 01:08:54;;;;;;;5.63;5.05;;;;;;;10.80;71.52;102093.22;5038628;28;20294;-80
2022/05/05 01:11:19;;;;;;;6.78;5.40;;;;;;;10.79;71.63;102092.38;5076288;28;20039;-80
2022/05/05 01:13:45;;;;;;;8.52;5.45;;;;;;;10.78;71.47;102093.25;5059239;28;20035;-80
2022/05/05 01:16:11;;;;;;;7.10;5.03;;;;;;;10.76;71.57;102095.91;5076297;28;20059;-80
2022/05/05 01:18:36;;;;;;;6.38;5.35;;;;;;;10.74;71.68;102091.59;5058521;28;20201;-80
2022/05/05 01:21:02;;;;;;;6.72;5.43;;;;;;;10.73;71.63;102092.47;5076463;28;20099;-80
2022/05/05 01:23:28;;;;;;;6.85;5.25;;;;;;;10.72;71.74;102096.00;5058296;28;20064;-80
2022/05/05 01:28:43;;;;;;;6.10;5.03;;;;;;;10.68;71.46;102092.59;5076487;28;20066;-80
2022/05/05 01:31:08;;;;;;;9.43;5.82;;;;;;;10.66;71.63;102089.16;5076637;28;20337;-80
2022/05/05 01:33:34;;;;;;;7.57;5.47;;;;;;;10.65;71.59;102087.41;5076579;28;20039;-80
2022/05/05 01:36:00;;;;;;;6.85;5.30;;;;;;;10.63;71.80;102091.81;5040449;28;20036;-80
2022/05/05 01:38:36;;;;;;;6.13;5.28;;;;;;;10.62;71.70;102081.38;5076583;28;20036;-80
2022/05/05 01:41:09;;;;;;;6.53;5.90;;;;;;;10.61;71.86;102083.13;5076284;28;20064;-80
2022/05/05 01:43:36;;;;;;;6.68;5.47;;;;;;;10.59;71.86;102089.28;5076091;28;20098;-80
2022/05/05 01:46:02;;;;;;;6.00;5.40;;;;;;;10.57;71.64;102084.09;5042042;28;20116;-80
2022/05/05 01:48:28;;;;;;;11.07;5.40;;;;;;;10.56;71.69;102085.84;5056201;28;20040;-80
2022/05/05 01:50:54;;;;;;;6.65;5.53;;;;;;;10.54;71.90;102086.78;5072392;28;20068;-80
2022/05/05 01:53:19;;;;;;;7.10;5.85;;;;;;;10.54;72.00;102087.63;5075725;28;20094;-80
2022/05/05 01:55:45;;;;;;;6.55;5.80;;;;;;;10.53;71.83;102087.66;5021778;28;20083;-80
2022/05/05 01:58:11;;;;;;;7.72;5.55;;;;;;;10.52;72.03;102089.41;5072467;28;20051;-80
2022/05/05 02:00:36;;;;;;;8.57;5.82;;;;;;;10.50;72.02;102088.59;5075930;28;20036;-80
2022/05/05 02:03:02;;;;;;;8.73;5.85;;;;;;;10.50;72.09;102087.75;5057841;28;20040;-80
2022/05/05 02:05:27;;;;;;;8.13;5.88;;;;;;;10.49;72.07;102089.47;5076600;28;20044;-80
2022/05/05 02:07:56;;;;;;;10.40;6.82;;;;;;;10.49;72.17;102093.84;5057807;28;20044;-80
2022/05/05 02:10:21;;;;;;;6.00;5.30;;;;;;;10.47;72.25;102099.13;5057961;28;20036;-79
2022/05/05 02:12:48;;;;;;;6.68;6.05;;;;;;;10.46;72.14;102093.91;5058515;28;20073;-79
2022/05/05 02:15:14;;;;;;;9.38;6.07;;;;;;;10.44;72.08;102088.72;5041753;28;20425;-79
2022/05/05 02:17:41;;;;;;;8.38;5.95;;;;;;;10.45;72.19;102092.19;5076578;28;20045;-79
2022/05/05 02:20:09;;;;;;;6.88;5.78;;;;;;;10.42;72.15;102095.72;5058900;28;20119;-79
2022/05/05 02:22:34;;;;;;;9.68;5.72;;;;;;;10.41;72.20;102098.41;5062155;28;20293;-79
2022/05/05 02:25:00;;;;;;;7.53;5.90;;;;;;;10.41;72.11;102098.41;5062040;28;20028;-79
2022/05/05 02:27:26;;;;;;;12.55;6.30;;;;;;;10.38;72.16;102099.31;5062133;28;20044;-79
2022/05/05 02:29:52;;;;;;;8.15;5.32;;;;;;;10.38;72.41;102099.31;5029119;28;20355;-80
2022/05/05 02:32:18;;;;;;;6.63;5.72;;;;;;;10.35;72.43;102096.75;5080088;28;20047;-80
2022/05/05 02:34:45;;;;;;;9.05;6.47;;;;;;;10.35;72.30;102094.13;5080664;28;20036;-80
2022/05/05 02:39:54;;;;;;;8.02;5.93;;;;;;;10.32;72.43;102102.06;5080061;28;20026;-80
2022/05/05 02:42:21;;;;;;;8.52;6.75;;;;;;;10.31;72.31;102102.94;5061532;28;20337;-80
2022/05/05 02:44:47;;;;;;;8.63;5.60;;;;;;;10.30;72.27;102104.66;5080430;28;20048;-80
2022/05/05 02:47:13;;;;;;;7.30;5.82;;;;;;;10.27;72.54;102102.09;5045674;28;20051;-80
2022/05/05 02:49:38;;;;;;;6.75;6.03;;;;;;;10.28;72.91;102108.22;5062520;28;20116;-80
2022/05/05 02:52:08;;;;;;;7.63;6.00;;;;;;;10.27;72.53;102101.25;5079642;28;20032;-80
2022/05/05 02:54:52;;;;;;;7.65;5.57;;;;;;;10.26;72.91;102102.13;5079163;28;20082;-80
2022/05/05 02:57:20;;;;;;;6.85;5.43;;;;;;;10.26;72.69;102102.13;5060426;28;20107;-80
2022/05/05 02:59:47;;;;;;;7.15;5.72;;;;;;;10.25;72.86;102098.66;5080075;28;20040;-80
2022/05/05 03:02:13;;;;;;;9.45;5.95;;;;;;;10.25;72.62;102108.28;5045359;28;20120;-80
2022/05/05 03:04:38;;;;;;;6.97;5.88;;;;;;;10.24;72.68;102102.19;5062023;28;20321;-81
2022/05/05 03:07:04;;;;;;;6.78;5.80;;;;;;;10.24;72.83;102101.28;5061530;28;20103;-80
2022/05/05 03:09:29;;;;;;;6.47;5.05;;;;;;;10.22;72.81;102098.69;5079505;28;20029;-80
2022/05/05 03:11:55;;;;;;;5.80;5.22;;;;;;;10.22;72.71;102101.31;5061455;28;20028;-80
2022/05/05 03:14:20;;;;;;;8.63;5.25;;;;;;;10.22;72.55;102105.69;5028110;28;20028;-80
2022/05/05 03:16:45;;;;;;;6.55;5.70;;;;;;;10.22;72.64;102103.09;5061254;28;20055;-80
2022/05/05 03:19:11;;;;;;;6.43;5.50;;;;;;;10.21;72.82;102099.59;5060851;28;20059;-80
2022/05/05 03:21:37;;;;;;;6.07;5.47;;;;;;;10.21;72.82;102102.22;5078617;28;20047;-80
2022/05/05 03:24:03;;;;;;;6.47;5.22;;;;;;;10.21;72.79;102104.84;5078744;28;20044;-80
2022/05/05 03:26:29;;;;;;;7.95;5.63;;;;;;;10.20;72.59;102103.09;5060577;28;20043;-80
2022/05/05 03:28:55;;;;;;;8.00;5.68;;;;;;;10.22;72.73;102110.94;5079260;28;20068;-80
2022/05/05 03:31:21;;;;;;;8.63;5.28;;;;;;;10.19;72.59;102102.25;5078917;28;20091;-80
2022/05/05 03:33:46;;;;;;;7.40;5.60;;;;;;;10.20;72.62;102105.72;5060659;28;20103;-80
2022/05/05 03:36:12;;;;;;;8.80;6.10;;;;;;;10.19;72.67;102102.25;5078689;28;20036;-80
2022/05/05 03:38:37;;;;;;;7.82;6.38;;;;;;;10.21;72.70;102104.00;5061485;28;20052;-80
2022/05/05 03:41:03;;;;;;;8.20;6.18;;;;;;;10.19;73.02;102112.72;5061215;28;20054;-80
2022/05/05 03:43:28;;;;;;;6.85;5.70;;;;;;;10.21;73.26;102106.59;5078906;28;20040;-80
2022/05/05 03:45:53;;;;;;;9.45;6.18;;;;;;;10.21;73.03;102107.47;5043769;28;20310;-80
2022/05/05 03:48:19;;;;;;;6.80;6.05;;;;;;;10.22;72.85;102110.94;5060395;28;20044;-80
2022/05/05 03:50:45;;;;;;;8.00;6.20;;;;;;;10.22;73.20;102116.16;5044398;28;20573;-80
2022/05/05 03:53:10;;;;;;;8.65;6.40;;;;;;;10.21;72.87;102104.84;5078788;28;20044;-80
2022/05/05 03:55:35;;;;;;;7.72;5.95;;;;;;;10.22;73.01;102111.78;5060322;28;20064;-80
2022/05/05 03:58:01;;;;;;;6.63;5.43;;;;;;;10.21;73.12;102109.22;5061087;28;20055;-80
2022/05/05 04:00:27;;;;;;;6.32;5.75;;;;;;;10.22;72.99;102113.56;5060637;28;20041;-80
2022/05/05 04:05:36;;;;;;;8.02;6.63;;;;;;;10.21;73.23;102112.69;5078821;28;20106;-80
2022/05/05 04:08:03;;;;;;;7.60;5.63;;;;;;;10.21;73.10;102111.84;5040396;28;20029;-80
2022/05/05 04:10:29;;;;;;;8.75;5.65;;;;;;;10.21;73.15;102111.84;5058392;28;20036;-80
2022/05/05 04:12:55;;;;;;;6.35;5.50;;;;;;;10.19;73.05;102115.34;5059166;28;20086;-80
2022/05/05 04:15:20;;;;;;;8.43;6.20;;;;;;;10.20;73.40;102116.19;5057380;28;20047;-80
2022/05/05 04:17:45;;;;;;;7.60;5.70;;;;;;;10.20;73.43;102124.06;5073946;28;20286;-80
2022/05/05 04:20:12;;;;;;;8.27;6.22;;;;;;;10.18;73.50;102110.97;5041603;28;20036;-80
2022/05/05 04:22:38;;;;;;;8.80;5.75;;;;;;;10.21;73.16;102128.41;5057785;28;20024;-80
2022/05/05 04:25:04;;;;;;;10.52;5.80;;;;;;;10.20;73.46;102113.56;5043748;28;20274;-80
2022/05/05 04:27:29;;;;;;;6.82;5.72;;;;;;;10.21;73.47;102117.09;5058425;28;20076;-80
2022/05/05 04:29:55;;;;;;;15.27;4.97;;;;;;;10.21;73.19;102125.78;5042784;28;20244;-80
2022/05/05 04:32:20;;;;;;;7.75;5.80;;;;;;;10.22;73.30;102127.50;5058860;28;20047;-80
2022/05/05 04:34:47;;;;;;;9.52;5.18;;;;;;;10.22;73.14;102126.66;5059426;28;20040;-80
2022/05/05 04:37:12;;;;;;;6.90;5.65;;;;;;;10.22;73.25;102130.13;5076644;28;20224;-80
2022/05/05 04:39:38;;;;;;;8.27;5.53;;;;;;;10.22;73.33;102119.66;5042151;28;20035;-80
2022/05/05 04:42:03;;;;;;;7.53;5.40;;;;;;;10.23;73.23;102131.84;5038297;28;20056;-80
2022/05/05 04:44:29;;;;;;;9.48;6.57;;;;;;;10.25;73.42;102131.84;5038693;28;20040;-80
2022/05/05 04:46:54;;;;;;;6.70;5.93;;;;;;;10.26;73.86;102133.53;5050223;28;20037;-80
2022/05/05 04:49:20;;;;;;;9.27;6.10;;;;;;;10.27;73.96;102133.53;5076067;28;20059;-80
2022/05/05 04:51:45;;;;;;;9.00;6.38;;;;;;;10.27;73.64;102136.13;5058653;28;20221;-80
2022/05/05 04:54:10;;;;;;;8.40;6.20;;;;;;;10.28;73.74;102130.03;5076701;28;20108;-80
2022/05/05 04:56:36;;;;;;;8.88;6.43;;;;;;;10.28;73.84;102134.41;5057255;28;20315;-80
2022/05/05 04:59:01;;;;;;;8.52;6.55;;;;;;;10.27;73.90;102133.53;5041390;28;20036;-80
2022/05/05 05:01:26;;;;;;;10.57;6.57;;;;;;;10.30;73.97;102143.94;5058186;28;20109;-80
2022/05/05 05:03:52;;;;;;;10.00;6.93;;;;;;;10.31;74.29;102148.31;5058317;28;20115;-80
2022/05/05 05:06:17;;;;;;;8.43;7.22;;;;;;;10.31;74.20;102139.59;5022441;28;20041;-80
2022/05/05 05:08:44;;;;;;;9.07;6.72;;;;;;;10.32;74.20;102151.81;5076134;28;20056;-80
2022/05/05 05:11:09;;;;;;;15.18;7.55;;;;;;;10.32;74.42;102146.56;5076581;28;20028;-80
2022/05/05 05:13:36;;;;;;;9.70;6.43;;;;;;;10.34;74.45;102150.88;5051361;28;20028;-80
2022/05/05 05:16:02;;;;;;;13.57;7.75;;;;;;;10.34;74.61;102152.63;5064234;28;20074;-80
2022/05/05 05:18:27;;;;;;;7.57;6.70;;;;;;;10.34;74.68;102152.63;5071729;28;20052;-80
2022/05/05 05:20:52;;;;;;;8.70;6.93;;;;;;;10.36;74.64;102158.72;5057967;28;20103;-80
2022/05/05 05:23:18;;;;;;;8.35;6.85;;;;;;;10.36;74.67;102162.19;5075513;28;20040;-80
2022/05/05 05:25:44;;;;;;;12.00;7.85;;;;;;;10.38;74.54;102170.88;5076045;28;20043;-80
2022/05/05 05:28:11;;;;;;;12.98;7.70;;;;;;;10.38;74.68;102170.88;5057659;28;20040;-80
2022/05/05 05:30:37;;;;;;;10.27;7.30;;;;;;;10.40;74.74;102172.59;5057484;28;20047;-80
2022/05/05 05:33:03;;;;;;;10.70;7.53;;;;;;;10.41;74.65;102184.81;5058016;28;20043;-80
2022/05/05 05:35:28;;;;;;;10.18;7.45;;;;;;;10.41;74.61;102177.81;5034480;28;20036;-80
2022/05/05 05:37:54;;;;;;;10.20;7.60;;;;;;;10.43;74.84;102185.66;5075060;28;20055;-80
2022/05/05 05:40:19;;;;;;;11.88;7.60;;;;;;;10.43;74.90;102181.28;5041346;28;20332;-80
2022/05/05 05:42:45;;;;;;;12.18;7.63;;;;;;;10.44;75.04;102188.25;5057446;28;20320;-80
2022/05/05 05:45:10;;;;;;;10.43;8.13;;;;;;;10.45;74.94;102192.59;5038384;28;20067;-80
2022/05/05 05:47:36;;;;;;;14.23;8.13;;;;;;;10.46;75.11;102183.84;5075744;28;20086;-80
2022/05/05 05:50:01;;;;;;;14.77;7.65;;;;;;;10.47;75.26;102188.16;5055907;28;20069;-80
2022/05/05 05:52:26;;;;;;;18.13;9.82;;;;;;;10.48;75.43;102183.81;5024806;28;20039;-80
2022/05/05 05:54:52;;;;;;;14.27;8.98;;;;;;;10.49;75.37;102190.75;5041979;28;20344;-80
2022/05/05 05:57:17;;;;;;;19.45;10.50;;;;;;;10.50;75.83;102195.13;5059626;28;20036;-80
2022/05/05 05:59:42;;;;;;;19.08;10.20;;;;;;;10.52;76.08;102198.56;5065546;28;20036;-80
2022/05/05 06:04:52;;;;;;;22.92;11.57;;;;;;;10.54;76.41;102202.88;5082955;28;20039;-80
2022/05/05 06:07:17;;;;;;;22.83;12.00;;;;;;;10.56;76.71;102197.63;5081836;28;20315;-80
2022/05/05 06:09:43;;;;;;;20.23;11.60;;;;;;;10.56;77.22;102208.94;5063618;28;20048;-80
2022/05/05 06:12:09;;;;;;;23.02;13.00;;;;;;;10.58;77.25;102203.69;5047977;28;20044;-81
2022/05/05 06:14:34;;;;;;;23.55;11.68;;;;;;;10.61;77.87;102205.41;5064151;28;20048;-81
2022/05/05 06:17:00;;;;;;;26.25;13.40;;;;;;;10.62;77.85;102205.34;5066921;28;20143;-80
2022/05/05 06:19:25;;;;;;;22.63;12.40;;;;;;;10.64;78.06;102210.56;5063784;28;20358;-80
2022/05/05 06:21:51;;;;;;;27.90;14.90;;;;;;;10.65;78.68;102214.94;5082509;28;20032;-80
2022/05/05 06:24:16;;;;;;;32.03;14.85;;;;;;;10.67;78.73;102221.00;5077094;28;20048;-80
2022/05/05 06:26:42;;;;;;;27.02;15.25;;;;;;;10.68;79.19;102214.88;5061818;28;20041;-80
2022/05/05 06:29:07;;;;;;;26.83;15.85;;;;;;;10.71;79.29;102226.16;5080816;28;20111;-81
2022/05/05 06:31:33;;;;;;;34.40;16.10;;;;;;;10.72;78.98;102227.03;5067231;28;20065;-80
2022/05/05 06:33:58;;;;;;;26.35;16.08;;;;;;;10.74;79.36;102231.31;5063238;28;20059;-80
2022/05/05 06:36:24;;;;;;;27.67;15.18;;;;;;;10.75;79.58;102235.69;5029452;28;20032;-80
2022/05/05 06:38:53;;;;;;;30.98;16.65;;;;;;;10.78;79.59;102234.75;5080940;28;20036;-81
2022/05/05 06:41:18;;;;;;;36.90;17.38;;;;;;;10.80;79.54;102237.34;5082216;28;20040;-81
2022/05/05 06:43:44;;;;;;;34.33;16.95;;;;;;;10.82;79.87;102243.41;5082042;28;20220;-80
2022/05/05 06:46:10;;;;;;;32.22;16.63;;;;;;;10.84;80.14;102239.00;5082523;28;20054;-80
2022/05/05 06:48:35;;;;;;;29.48;15.82;;;;;;;10.87;79.97;102236.34;5061668;28;20115;-80
2022/05/05 06:51:01;;;;;;;37.80;17.42;;;;;;;10.88;80.30;102238.94;5026342;28;20024;-80
2022/05/05 06:53:26;;;;;;;33.67;16.40;;;;;;;10.89;80.46;102235.41;5047391;28;20037;-81
2022/05/05 06:55:55;;;;;;;39.75;21.58;;;;;;;10.92;80.40;102244.97;5082266;28;20057;-81
2022/05/05 06:58:25;;;;;;;38.05;19.58;;;;;;;10.95;80.60;102235.28;5081783;28;20052;-80
2022/05/05 07:03:35;;;;;;;42.88;21.08;;;;;;;10.99;80.89;102241.34;5063697;28;20070;-80
2022/05/05 07:06:01;;;;;;;48.55;20.95;;;;;;;11.02;81.28;102241.25;5081198;28;20028;-80
2022/05/05 07:08:27;;;;;;;43.28;22.10;;;;;;;11.04;81.73;102244.75;5073975;28;20336;-80
2022/05/05 07:10:53;;;;;;;43.88;22.25;;;;;;;11.09;81.45;102247.25;5071338;28;20359;-80
2022/05/05 07:13:23;;;;;;;47.47;23.55;;;;;;;11.12;81.66;102252.44;5076593;28;20044;-80
2022/05/05 07:15:49;;;;;;;51.10;23.90;;;;;;;11.14;82.38;102251.50;5068689;28;20051;-80
2022/05/05 07:18:15;;;;;;;45.28;23.83;;;;;;;11.18;82.32;102249.69;5058783;28;20116;-80
2022/05/05 07:20:41;;;;;;;50.13;26.55;;;;;;;11.22;82.96;102250.47;5060410;28;20043;-80
2022/05/05 07:23:11;;;;;;;53.35;25.95;;;;;;;11.25;83.11;102253.91;5063412;28;20538;-80
2022/05/05 07:25:37;;;;;;;56.33;25.98;;;;;;;11.27;82.74;102257.34;5073950;28;20343;-80
2022/05/05 07:28:02;;;;;;;45.03;22.98;;;;;;;11.30;82.63;102257.31;5051034;28;20060;-80
2022/05/05 07:30:28;;;;;;;51.10;26.20;;;;;;;11.31;81.79;102251.19;5060303;28;20043;-80
2022/05/05 07:32:54;;;;;;;54.08;24.83;;;;;;;11.37;81.73;102262.41;5072009;28;20296;-80
2022/05/05 07:35:19;;;;;;;50.63;24.42;;;;;;;11.38;81.83;102258.91;5043560;28;20077;-80
2022/05/05 07:37:45;;;;;;;55.30;25.60;;;;;;;11.38;80.98;102264.16;5042034;28;20324;-80
2022/05/05 07:40:10;;;;;;;58.20;29.30;;;;;;;11.39;80.57;102266.75;5073959;28;20024;-80
2022/05/05 07:42:37;;;;;;;55.38;26.60;;;;;;;11.40;79.94;102260.56;5059113;28;20244;-80
2022/05/05 07:45:04;;;;;;;59.85;29.33;;;;;;;11.41;80.43;102269.34;5073599;28;20040;-80
2022/05/05 07:47:29;;;;;;;56.38;29.58;;;;;;;11.44;80.56;102271.88;5078613;28;20108;-80
2022/05/05 07:49:54;;;;;;;53.42;29.08;;;;;;;11.47;79.90;102272.66;5056890;28;20240;-80
2022/05/05 07:52:20;;;;;;;50.05;26.98;;;;;;;11.49;79.16;102270.03;5047680;28;20060;-80
2022/05/05 07:54:45;;;;;;;50.00;26.75;;;;;;;11.50;79.62;102275.25;5059198;28;20340;-80
2022/05/05 07:57:12;;;;;;;47.72;25.60;;;;;;;11.55;78.70;102280.41;5051993;28;20036;-80
2022/05/05 07:59:39;;;;;;;50.88;27.17;;;;;;;11.56;78.87;102282.09;5068338;28;20274;-80
2022/05/05 08:02:08;;;;;;;44.03;25.60;;;;;;;11.58;77.78;102280.31;5076429;28;20208;-81
2022/05/05 08:04:34;;;;;;;55.45;29.15;;;;;;;11.61;78.04;102284.66;5075891;28;20063;-80
2022/05/05 08:07:00;;;;;;;55.30;27.73;;;;;;;11.65;78.27;102288.91;5060145;28;20067;-80
2022/05/05 08:09:25;;;;;;;57.75;29.90;;;;;;;11.69;80.03;102282.69;5064329;28;20032;-80
2022/05/05 08:11:51;;;;;;;53.28;28.20;;;;;;;11.75;79.65;102285.22;5052605;28;20028;-80
2022/05/05 08:14:16;;;;;;;55.95;29.35;;;;;;;11.79;80.35;102293.84;5056898;28;20028;-80
2022/05/05 08:16:42;;;;;;;52.83;28.83;;;;;;;11.86;80.23;102300.69;5074035;28;20044;-80
2022/05/05 08:19:07;;;;;;;44.75;24.40;;;;;;;11.89;80.12;102298.84;5067126;28;20045;-80
2022/05/05 08:21:33;;;;;;;54.38;30.05;;;;;;;11.94;79.15;102300.56;5058962;28;20047;-80
2022/05/05 08:29:26;;;;;;;63.15;32.38;;;;;;;12.04;80.16;102312.56;5073908;28;20100;-80
2022/05/05 08:31:53;;;;;;;54.55;29.20;;;;;;;12.08;80.12;102304.59;5054342;28;20240;-80
2022/05/05 08:34:19;;;;;;;50.30;26.83;;;;;;;12.14;79.09;102302.72;5075216;28;20331;-80
2022/05/05 08:36:44;;;;;;;53.10;27.30;;;;;;;12.17;78.79;102308.75;5070248;28;20021;-80
2022/05/05 08:39:09;;;;;;;56.40;28.67;;;;;;;12.23;79.74;102302.50;5078154;28;20110;-80
2022/05/05 08:41:38;;;;;;;58.13;30.70;;;;;;;12.29;79.76;102307.59;5060873;28;20043;-80
2022/05/05 08:44:03;;;;;;;58.60;29.80;;;;;;;12.35;80.08;102311.81;5076634;28;20362;-80
2022/05/05 08:46:33;;;;;;;58.72;31.13;;;;;;;12.41;80.09;102320.44;5072874;28;20048;-80
2022/05/05 08:49:04;;;;;;;61.42;32.03;;;;;;;12.44;79.61;102315.09;5046081;28;20055;-80
2022/05/05 08:51:37;;;;;;;56.05;30.13;;;;;;;12.47;79.60;102328.16;5071349;28;20363;-80
2022/05/05 08:54:06;;;;;;;55.38;30.30;;;;;;;12.52;79.29;102322.78;5057522;28;20055;-80
2022/05/05 08:56:32;;;;;;;58.30;30.50;;;;;;;12.57;79.44;102323.53;5065741;28;20087;-80
2022/05/05 08:58:57;;;;;;;57.45;28.77;;;;;;;12.60;79.44;102318.19;5077085;28;20240;-80
2022/05/05 09:01:24;;;;;;;56.92;29.98;;;;;;;12.64;78.86;102327.75;5069161;28;20220;-80
2022/05/05 09:03:49;;;;;;;58.67;31.85;;;;;;;12.68;79.07;102326.75;5042934;28;20029;-80
2022/05/05 09:06:15;;;;;;;52.88;27.75;;;;;;;12.75;79.38;102329.22;5050707;28;20229;-80
2022/05/05 09:08:44;;;;;;;62.75;31.98;;;;;;;12.79;79.09;102329.09;5042839;28;20039;-80
2022/05/05 09:11:18;;;;;;;65.85;33.45;;;;;;;12.82;78.70;102334.28;5058248;28;20040;-80
2022/05/05 09:13:43;;;;;;;49.17;27.92;;;;;;;12.85;78.10;102335.97;5049656;28;20037;-80
2022/05/05 09:16:10;;;;;;;54.53;30.00;;;;;;;12.89;78.70;102334.13;5054850;28;20145;-80
2022/05/05 09:18:36;;;;;;;60.65;30.60;;;;;;;12.92;78.89;102337.53;5041712;28;20052;-80
2022/05/05 09:21:04;;;;;;;60.88;30.60;;;;;;;12.96;78.27;102335.69;5055752;28;20036;-80
2022/05/05 09:24:34;;;;;;;51.75;29.67;;;;;;;13.01;78.70;102339.91;5072531;28;20042;-80
2022/05/05 09:26:26;;;;;;;50.90;27.60;;;;;;;13.06;77.88;102343.28;5068463;28;20417;-80
2022/05/05 09:28:52;;;;;;;53.47;28.60;;;;;;;13.11;78.31;102347.56;5069449;28;20038;-80
2022/05/05 09:31:17;;;;;;;52.20;29.42;;;;;;;13.12;77.84;102342.25;5050597;28;20028;-80
2022/05/05 09:33:44;;;;;;;69.05;32.35;;;;;;;13.18;77.88;102349.97;5045740;28;20043;-80
2022/05/05 09:36:14;;;;;;;59.47;32.55;;;;;;;13.20;77.84;102344.66;5064770;28;20293;-80
2022/05/05 09:38:58;;;;;;;59.30;31.77;;;;;;;13.24;77.78;102348.94;5071445;28;20036;-80
2022/05/05 09:41:25;;;;;;;63.33;31.98;;;;;;;13.27;77.74;102350.63;5077350;28;20095;-80
2022/05/05 09:44:20;;;;;;;62.38;32.78;;;;;;;13.30;77.61;102350.53;5054801;28;20324;-80
2022/05/05 09:46:46;;;;;;;74.75;34.25;;;;;;;13.35;77.88;102346.03;5075458;28;20066;-80
2022/05/05 09:49:13;;;;;;;63.72;32.28;;;;;;;13.38;77.67;102353.84;5061793;28;20040;-80
2022/05/05 09:51:43;;;;;;;58.53;29.55;;;;;;;13.42;78.26;102340.56;5071393;28;20376;-80
2022/05/05 09:59:46;;;;;;;55.97;30.92;;;;;;;13.63;77.88;102354.88;5077187;28;20143;-80
2022/05/05 10:03:59;;;;;;;54.95;30.90;;;;;;;13.68;77.44;102354.75;5058920;28;20036;-80
2022/05/05 10:05:00;;;;;;;53.30;29.42;;;;;;;13.74;77.55;102356.31;5069095;28;20052;-80
2022/05/05 10:07:25;;;;;;;54.72;28.75;;;;;;;13.77;77.60;102358.84;5058284;28;20043;-80
2022/05/05 10:09:53;;;;;;;43.10;25.55;;;;;;;13.81;76.71;102358.72;5077305;28;20039;-80
2022/05/05 10:12:19;;;;;;;51.78;29.10;;;;;;;13.84;76.62;102368.28;5041820;28;20044;-80
2022/05/05 10:14:46;;;;;;;48.95;27.90;;;;;;;13.88;77.02;102366.44;5077247;28;20142;-80
2022/05/05 10:17:14;;;;;;;41.40;24.20;;;;;;;13.92;76.62;102368.09;5068958;28;20519;-80
2022/05/05 10:19:39;;;;;;;39.95;22.80;;;;;;;13.94;75.78;102367.13;5077250;28;20040;-80
2022/05/05 10:22:20;;;;;;;44.47;25.83;;;;;;;13.98;76.26;102359.97;5061252;28;20240;-80
2022/05/05 10:25:05;;;;;;;45.92;23.90;;;;;;;14.04;76.14;102362.41;5076303;28;20048;-80
2022/05/05 10:27:30;;;;;;;47.55;26.40;;;;;;;14.07;76.13;102364.97;5074559;28;20255;-80
2022/05/05 10:29:56;;;;;;;42.35;25.02;;;;;;;14.12;75.81;102363.06;5073188;28;20024;-80
2022/05/05 10:32:25;;;;;;;47.00;28.48;;;;;;;14.13;74.46;102361.28;5057998;28;20044;-80
2022/05/05 10:35:06;;;;;;;49.17;28.33;;;;;;;14.12;74.51;102367.47;5076841;28;20070;-80
2022/05/05 10:37:36;;;;;;;45.67;27.40;;;;;;;14.10;74.83;102366.63;5062189;28;20360;-80
2022/05/05 10:40:08;;;;;;;44.53;26.58;;;;;;;14.14;75.70;102365.66;5069830;28;20031;-80
2022/05/05 10:42:43;;;;;;;42.53;24.52;;;;;;;14.17;75.33;102369.03;5060390;28;20036;-80
2022/05/05 10:45:17;;;;;;;39.15;24.02;;;;;;;14.20;75.89;102368.94;5080102;28;20036;-80
2022/05/05 10:47:55;;;;;;;46.30;25.58;;;;;;;14.25;75.65;102370.56;5079895;28;20348;-80
2022/05/05 10:50:33;;;;;;;43.55;25.85;;;;;;;14.26;75.18;102374.91;5074700;28;20024;-79
2022/05/05 10:53:00;;;;;;;48.65;25.42;;;;;;;14.24;74.75;102369.69;5079178;28;20032;-80
2022/05/05 10:55:34;;;;;;;42.88;25.92;;;;;;;14.24;74.89;102371.47;5045221;28;20386;-80
2022/05/05 10:58:00;;;;;;;44.70;26.30;;;;;;;14.26;75.26;102373.16;5072815;28;20359;-80
2022/05/05 11:00:40;;;;;;;43.83;24.35;;;;;;;14.31;75.37;102373.00;5067312;28;20037;-80
2022/05/05 11:03:11;;;;;;;34.33;20.10;;;;;;;14.31;73.96;102373.84;5072436;28;20249;-79
2022/05/05 11:05:38;;;;;;;35.83;22.02;;;;;;;14.34;73.51;102379.03;5054269;28;20028;-80
2022/05/05 11:08:09;;;;;;;33.15;20.23;;;;;;;14.36;73.73;102379.00;5066464;28;20040;-80
2022/05/05 11:10:40;;;;;;;35.05;21.73;;;;;;;14.39;73.80;102377.13;5080395;28;20093;-81
2022/05/05 11:13:06;;;;;;;34.45;21.23;;;;;;;14.43;73.78;102372.63;5078890;28;20331;-80
2022/05/05 11:21:33;;;;;;;33.58;21.25;;;;;;;14.56;74.36;102375.72;5076801;28;20282;-80
2022/05/05 11:24:00;;;;;;;32.28;20.63;;;;;;;14.59;74.32;102381.78;5071605;28;20036;-80
2022/05/05 11:26:26;;;;;;;35.53;21.98;;;;;;;14.61;74.76;102381.72;5079945;28;20112;-80
2022/05/05 11:28:53;;;;;;;32.03;21.58;;;;;;;14.63;74.11;102374.63;5059201;28;20048;-80
2022/05/05 11:31:23;;;;;;;35.90;22.48;;;;;;;14.64;73.84;102378.13;5055267;28;20086;-80
2022/05/05 11:33:54;;;;;;;35.47;22.90;;;;;;;14.63;73.60;102373.78;5080465;28;20040;-80
2022/05/05 11:36:20;;;;;;;40.45;22.02;;;;;;;14.64;73.13;102384.25;5055319;28;20047;-80
2022/05/05 11:38:46;;;;;;;32.28;21.65;;;;;;;14.68;74.09;102377.09;5079198;28;20149;-80
2022/05/05 11:41:20;;;;;;;32.20;20.33;;;;;;;14.72;73.93;102379.59;5076222;28;20194;-81
2022/05/05 11:46:31;;;;;;;24.05;17.38;;;;;;;14.85;72.51;102380.03;5078676;28;20047;-80
2022/05/05 11:48:57;;;;;;;19.05;15.25;;;;;;;14.89;71.19;102380.78;5076625;28;20067;-80
2022/05/05 11:51:29;;;;;;;24.92;15.60;;;;;;;14.92;70.49;102380.69;5061749;28;20094;-80
2022/05/05 11:54:17;;;;;;;19.42;14.60;;;;;;;14.95;70.29;102375.28;5065917;28;20032;-80
2022/05/05 11:56:44;;;;;;;20.77;14.70;;;;;;;14.99;70.90;102376.94;5075846;28;20038;-81
2022/05/05 12:02:00;;;;;;;17.63;12.85;;;;;;;15.07;70.75;102381.94;5071820;28;20081;-80